Time;durP1;ratioP1;P1;durP2;ratioP2;P2;SDS_P1;SDS_P2;PMS_P1;PMS_P2;Temp;Humidity;BMP_temperature;BMP_pressure;BME280_temperature;BME280_humidity;BME280_pressure;Samples;Min_cycle;Max_cycle;Signal;HPM_P1;HPM_P2
2022/11/18 00:01:20;;;;;;;;;;;;;;;7.96;82.31;98134.78;5077345;28;19950;-71
2022/11/18 00:03:49;;;;;;;;;;;;;;;7.94;81.10;98141.56;5077697;28;19932;-71
2022/11/18 00:06:19;;;;;;;;;;;;;;;7.94;81.29;98130.56;5077241;28;19934;-71
2022/11/18 00:08:47;;;;;;;;;;;;;;;7.93;81.20;98134.81;5077884;28;20309;-71
2022/11/18 00:14:17;;;;;;;;;;;;;;;7.92;81.60;98133.13;5077223;28;19932;-71
2022/11/18 00:16:51;;;;;;;;;;;;;;;7.93;81.68;98119.56;5077366;28;19951;-71
2022/11/18 00:19:20;;;;;;;;;;;;;;;7.90;81.42;98119.59;5059713;28;20022;-71
2022/11/18 00:21:48;;;;;;;;;;;;;;;7.87;81.23;98119.66;5077270;28;19935;-71
2022/11/18 00:24:16;;;;;;;;;;;;;;;7.82;81.54;98113.78;5076883;28;19925;-71
2022/11/18 00:26:45;;;;;;;;;;;;;;;7.81;80.91;98112.13;5076177;28;20338;-71
2022/11/18 00:29:13;;;;;;;;;;;;;;;7.81;82.00;98113.84;5076814;28;19924;-71
2022/11/18 00:31:43;;;;;;;;;;;;;;;7.76;81.21;98101.22;5076804;28;19925;-71
2022/11/18 00:34:14;;;;;;;;;;;;;;;7.70;81.52;98101.28;5076625;28;19931;-71
2022/11/18 00:36:43;;;;;;;;;;;;;;;7.67;81.57;98105.59;5076297;28;19974;-71
2022/11/18 00:39:13;;;;;;;;;;;;;;;7.70;81.48;98106.34;5076662;28;20015;-71
2022/11/18 00:44:20;;;;;;;;;;;;;;;7.70;81.73;98119.06;5076689;28;19966;-71
2022/11/18 00:46:48;;;;;;;;;;;;;;;7.68;81.80;98113.16;5076476;28;20022;-71
2022/11/18 00:49:18;;;;;;;;;;;;;;;7.71;82.72;98113.13;5076472;28;19924;-71
2022/11/18 00:51:47;;;;;;;;;;;;;;;7.72;81.73;98099.59;5076336;28;19925;-71
2022/11/18 00:54:15;;;;;;;;;;;;;;;7.72;82.32;98099.59;5076410;28;19925;-71
2022/11/18 00:56:43;;;;;;;;;;;;;;;7.72;81.96;98099.59;5076566;28;20294;-71
2022/11/18 00:59:12;;;;;;;;;;;;;;;7.72;81.96;98102.13;5076618;28;20017;-71
2022/11/18 01:01:40;;;;;;;;;;;;;;;7.72;82.19;98109.75;5076839;28;20274;-71
2022/11/18 01:04:08;;;;;;;;;;;;;;;7.73;82.37;98106.31;5076144;28;19928;-71
2022/11/18 01:06:38;;;;;;;;;;;;;;;7.76;82.34;98105.44;5076066;28;20400;-71
2022/11/18 01:09:07;;;;;;;;;;;;;;;7.77;82.17;98107.97;5076101;28;19970;-71
2022/11/18 01:14:14;;;;;;;;;;;;;;;7.82;82.58;98112.97;5076049;28;19932;-71
2022/11/18 01:16:42;;;;;;;;;;;;;;;7.83;82.23;98117.19;5075854;28;19924;-71
2022/11/18 01:19:10;;;;;;;;;;;;;;;7.83;83.05;98120.56;5076489;28;19925;-71
2022/11/18 01:21:40;;;;;;;;;;;;;;;7.83;83.15;98114.66;5075821;28;19928;-71
2022/11/18 01:24:09;;;;;;;;;;;;;;;7.85;82.84;98115.44;5076140;28;19994;-71
2022/11/18 01:26:37;;;;;;;;;;;;;;;7.87;82.96;98106.94;5108374;28;19931;-71
2022/11/18 01:29:05;;;;;;;;;;;;;;;7.85;83.34;98111.22;5075713;28;19924;-71
2022/11/18 01:31:34;;;;;;;;;;;;;;;7.88;82.58;98103.56;5075958;28;19990;-71
2022/11/18 01:34:02;;;;;;;;;;;;;;;7.88;83.86;98106.09;5075598;28;20370;-71
2022/11/18 01:36:31;;;;;;;;;;;;;;;7.88;82.54;98113.72;5075587;28;19947;-71
2022/11/18 01:39:01;;;;;;;;;;;;;;;7.89;82.52;98105.22;5075739;28;19925;-71
2022/11/18 01:41:29;;;;;;;;;;;;;;;7.85;83.41;98116.31;5075460;28;19929;-71
2022/11/18 01:43:58;;;;;;;;;;;;;;;7.83;83.26;98120.56;5075376;28;19924;-71
2022/11/18 01:46:28;;;;;;;;;;;;;;;7.85;83.15;98115.44;5075372;28;20394;-71
2022/11/18 01:49:00;;;;;;;;;;;;;;;7.85;83.06;98111.22;5075275;28;19932;-71
2022/11/18 01:51:30;;;;;;;;;;;;;;;7.89;82.47;98097.59;5075281;28;19924;-71
2022/11/18 01:54:00;;;;;;;;;;;;;;;7.88;82.81;98100.19;5074108;28;19928;-71
2022/11/18 01:56:32;;;;;;;;;;;;;;;7.89;83.13;98096.78;5075538;28;19928;-71
2022/11/18 01:59:03;;;;;;;;;;;;;;;7.89;82.64;98097.59;5075077;28;20007;-71
2022/11/18 02:01:31;;;;;;;;;;;;;;;7.90;83.93;98099.28;5075090;28;19925;-71
2022/11/18 02:04:00;;;;;;;;;;;;;;;7.89;83.21;98112.84;5075025;28;19989;-71
2022/11/18 02:06:29;;;;;;;;;;;;;;;7.79;83.01;98116.41;5075234;28;20290;-71
2022/11/18 02:08:57;;;;;;;;;;;;;;;7.72;83.23;98114.81;5075113;28;20282;-71
2022/11/18 02:14:06;;;;;;;;;;;;;;;7.71;83.15;98108.06;5075259;28;20432;-71
2022/11/18 02:16:40;;;;;;;;;;;;;;;7.78;83.43;98103.72;5074320;28;19924;-71
2022/11/18 02:19:18;;;;;;;;;;;;;;;7.79;84.00;98101.16;5074719;28;19929;-71
2022/11/18 02:21:55;;;;;;;;;;;;;;;7.73;83.16;98090.25;5075265;28;19950;-71
2022/11/18 02:24:29;;;;;;;;;;;;;;;7.71;83.60;98091.97;5074963;28;20023;-71
2022/11/18 02:27:08;;;;;;;;;;;;;;;7.66;83.73;98089.50;5074970;28;20389;-71
2022/11/18 02:29:43;;;;;;;;;;;;;;;7.63;83.74;98079.38;5074743;28;20345;-71
2022/11/18 02:32:13;;;;;;;;;;;;;;;7.66;83.64;98079.34;5074995;28;20392;-71
2022/11/18 02:34:47;;;;;;;;;;;;;;;7.70;84.00;98068.28;5074476;28;19932;-71
2022/11/18 02:37:19;;;;;;;;;;;;;;;7.75;84.63;98069.03;5074462;28;19928;-71
2022/11/18 02:39:52;;;;;;;;;;;;;;;7.73;84.52;98060.63;5074325;28;20015;-71
2022/11/18 02:42:21;;;;;;;;;;;;;;;7.70;83.54;98050.50;5074368;28;19932;-71
2022/11/18 02:44:52;;;;;;;;;;;;;;;7.66;84.77;98043.81;5074538;28;19928;-71
2022/11/18 02:47:23;;;;;;;;;;;;;;;7.69;84.24;98033.63;5074297;28;19924;-71
2022/11/18 02:49:54;;;;;;;;;;;;;;;7.73;84.55;98027.63;5074239;28;19924;-71
2022/11/18 02:52:24;;;;;;;;;;;;;;;7.76;83.79;98025.03;5074086;28;19931;-71
2022/11/18 02:54:54;;;;;;;;;;;;;;;7.75;84.02;98018.25;5074132;28;19924;-71
2022/11/18 02:57:23;;;;;;;;;;;;;;;7.72;83.81;98010.72;5074136;28;19925;-71
2022/11/18 02:59:53;;;;;;;;;;;;;;;7.72;84.35;98002.25;5074338;28;19924;-71
2022/11/18 03:02:22;;;;;;;;;;;;;;;7.73;84.31;97998.84;5074064;28;20387;-71
2022/11/18 03:04:55;;;;;;;;;;;;;;;7.74;84.14;97995.44;5073994;28;19931;-71
2022/11/18 03:07:26;;;;;;;;;;;;;;;7.79;84.60;97998.75;5074071;28;19974;-71
2022/11/18 03:09:55;;;;;;;;;;;;;;;7.79;83.99;98008.91;5073979;28;19924;-71
2022/11/18 03:12:30;;;;;;;;;;;;;;;7.81;84.55;98008.03;5072955;28;19925;-71
2022/11/18 03:15:07;;;;;;;;;;;;;;;7.79;84.19;98012.28;5074022;28;19954;-71
2022/11/18 03:17:43;;;;;;;;;;;;;;;7.81;83.90;98018.19;5073924;28;19924;-70
2022/11/18 03:20:15;;;;;;;;;;;;;;;7.81;84.01;98023.25;5074050;28;19926;-71
2022/11/18 03:22:47;;;;;;;;;;;;;;;7.82;84.42;98019.84;5074224;28;19949;-71
2022/11/18 03:25:20;;;;;;;;;;;;;;;7.81;83.84;98027.50;5073896;28;19925;-71
2022/11/18 03:27:52;;;;;;;;;;;;;;;7.77;84.16;98026.72;5075353;28;19925;-71
2022/11/18 03:30:23;;;;;;;;;;;;;;;7.76;84.20;98025.03;5078350;28;19928;-71
2022/11/18 03:32:56;;;;;;;;;;;;;;;7.77;84.20;98020.81;5078013;28;20316;-71
2022/11/18 03:35:25;;;;;;;;;;;;;;;7.76;84.03;98019.13;5077665;28;19958;-71
2022/11/18 03:37:57;;;;;;;;;;;;;;;7.73;83.96;98014.91;5078412;28;20024;-70
2022/11/18 03:40:27;;;;;;;;;;;;;;;7.75;84.03;98014.91;5078388;28;20362;-71
2022/11/18 03:42:58;;;;;;;;;;;;;;;7.75;84.35;98018.25;5077994;28;19925;-71
2022/11/18 03:45:30;;;;;;;;;;;;;;;7.76;83.75;98025.03;5077782;28;19924;-71
2022/11/18 03:48:02;;;;;;;;;;;;;;;7.69;84.56;98013.31;5078350;28;20018;-71
2022/11/18 03:50:33;;;;;;;;;;;;;;;7.69;84.70;98008.22;5077932;28;20281;-71
2022/11/18 03:53:01;;;;;;;;;;;;;;;7.70;84.29;98025.13;5077435;28;19963;-71
2022/11/18 03:55:33;;;;;;;;;;;;;;;7.69;84.44;98017.53;5078140;28;20404;-71
2022/11/18 03:58:03;;;;;;;;;;;;;;;7.63;84.65;98018.47;5077488;28;19924;-71
2022/11/18 04:00:41;;;;;;;;;;;;;;;7.64;85.36;98030.31;5078317;28;20355;-71
2022/11/18 04:03:10;;;;;;;;;;;;;;;7.62;84.81;98026.97;5077287;28;19924;-71
2022/11/18 04:05:40;;;;;;;;;;;;;;;7.64;84.71;98027.78;5077313;28;19924;-71
2022/11/18 04:08:12;;;;;;;;;;;;;;;7.68;85.12;98028.56;5077261;28;19924;-71
2022/11/18 04:10:42;;;;;;;;;;;;;;;7.68;86.01;98034.47;5077256;28;19928;-71
2022/11/18 04:13:13;;;;;;;;;;;;;;;7.65;84.95;98026.91;5077355;28;20350;-71
2022/11/18 04:15:44;;;;;;;;;;;;;;;7.65;84.82;98037.06;5077493;28;20282;-71
2022/11/18 04:18:12;;;;;;;;;;;;;;;7.62;85.20;98033.72;5077411;28;19924;-71
2022/11/18 04:20:41;;;;;;;;;;;;;;;7.61;85.41;98026.97;5077002;28;19925;-71
2022/11/18 04:23:10;;;;;;;;;;;;;;;7.58;85.59;98035.50;5076874;28;19928;-71
2022/11/18 04:25:38;;;;;;;;;;;;;;;7.56;85.57;98027.03;5076920;28;19931;-71
2022/11/18 04:28:09;;;;;;;;;;;;;;;7.55;85.97;98030.47;5076924;28;19931;-71
2022/11/18 04:30:37;;;;;;;;;;;;;;;7.57;85.52;98023.66;5076771;28;19931;-71
2022/11/18 04:33:07;;;;;;;;;;;;;;;7.52;86.02;98027.97;5076988;28;19924;-71
2022/11/18 04:35:35;;;;;;;;;;;;;;;7.43;85.75;98025.56;5076580;28;20375;-71
2022/11/18 04:38:03;;;;;;;;;;;;;;;7.40;86.08;98023.06;5076308;28;19931;-71
2022/11/18 04:40:32;;;;;;;;;;;;;;;7.37;85.64;98030.72;5076988;28;19924;-71
2022/11/18 04:43:00;;;;;;;;;;;;;;;7.35;86.09;98030.75;5076586;28;19936;-71
2022/11/18 04:45:29;;;;;;;;;;;;;;;7.29;86.26;98032.53;5076513;28;19924;-70
2022/11/18 04:47:57;;;;;;;;;;;;;;;7.25;86.43;98030.88;5076519;28;19931;-71
2022/11/18 04:50:32;;;;;;;;;;;;;;;7.27;86.48;98034.28;5076527;28;19928;-71
2022/11/18 04:53:00;;;;;;;;;;;;;;;7.27;86.79;98034.28;5076518;28;19935;-71
2022/11/18 04:55:29;;;;;;;;;;;;;;;7.26;87.03;98033.44;5076599;28;19947;-71
2022/11/18 04:57:57;;;;;;;;;;;;;;;7.28;87.17;98036.78;5076606;28;20374;-71
2022/11/18 05:00:25;;;;;;;;;;;;;;;7.28;86.80;98030.84;5076602;28;20073;-71
2022/11/18 05:02:55;;;;;;;;;;;;;;;7.26;87.11;98024.97;5076534;28;20305;-71
2022/11/18 05:05:23;;;;;;;;;;;;;;;7.22;86.95;98021.63;5076726;28;20270;-71
2022/11/18 05:07:53;;;;;;;;;;;;;;;7.27;87.18;98013.97;5076091;28;19924;-71
2022/11/18 05:10:21;;;;;;;;;;;;;;;7.27;87.35;98008.91;5076440;28;19967;-71
2022/11/18 05:12:49;;;;;;;;;;;;;;;7.29;86.46;98009.72;5075998;28;19924;-70
2022/11/18 05:15:18;;;;;;;;;;;;;;;7.32;87.47;98014.72;5075956;28;19924;-71
2022/11/18 05:17:46;;;;;;;;;;;;;;;7.29;87.36;98013.06;5075016;28;19939;-71
2022/11/18 05:20:15;;;;;;;;;;;;;;;7.23;87.31;98012.31;5076243;28;19960;-71
2022/11/18 05:22:43;;;;;;;;;;;;;;;7.22;87.57;98010.66;5075826;28;19978;-71
2022/11/18 05:25:13;;;;;;;;;;;;;;;7.27;87.28;98017.31;5075998;28;20255;-71
2022/11/18 05:27:42;;;;;;;;;;;;;;;7.27;87.62;98019.06;5076107;28;19924;-71
2022/11/18 05:30:11;;;;;;;;;;;;;;;7.30;87.70;98014.75;5075685;28;19928;-71
2022/11/18 05:32:39;;;;;;;;;;;;;;;7.32;87.12;98007.94;5075825;28;19936;-71
2022/11/18 05:35:08;;;;;;;;;;;;;;;7.31;87.96;98015.59;5075390;28;20019;-71
2022/11/18 05:37:36;;;;;;;;;;;;;;;7.31;87.20;98013.06;5075621;28;19924;-71
2022/11/18 05:40:05;;;;;;;;;;;;;;;7.33;87.96;98008.78;5075530;28;19932;-71
2022/11/18 05:45:14;;;;;;;;;;;;;;;7.39;87.92;97998.53;5075802;28;20374;-71
2022/11/18 05:50:25;;;;;;;;;;;;;;;7.40;87.52;97978.22;5074529;28;19925;-71
2022/11/18 05:52:53;;;;;;;;;;;;;;;7.46;88.02;97972.22;5075470;28;20281;-71
2022/11/18 05:55:24;;;;;;;;;;;;;;;7.49;87.34;97974.69;5074189;28;19974;-71
2022/11/18 05:57:54;;;;;;;;;;;;;;;7.51;87.06;97956.94;5075016;28;19924;-71
2022/11/18 06:00:22;;;;;;;;;;;;;;;7.53;88.04;97963.66;5075424;28;19947;-71
2022/11/18 06:02:52;;;;;;;;;;;;;;;7.53;87.14;97955.19;5075055;28;19932;-71
2022/11/18 06:05:22;;;;;;;;;;;;;;;7.53;87.24;97950.97;5075055;28;19928;-71
2022/11/18 06:07:51;;;;;;;;;;;;;;;7.54;87.20;97952.63;5074907;28;20015;-71
2022/11/18 06:10:22;;;;;;;;;;;;;;;7.56;87.54;97943.28;5075184;28;20409;-71
2022/11/18 06:12:52;;;;;;;;;;;;;;;7.55;87.14;97936.53;5074761;28;19974;-71
2022/11/18 06:15:24;;;;;;;;;;;;;;;7.56;87.41;97932.31;5074723;28;19935;-71
2022/11/18 06:17:54;;;;;;;;;;;;;;;7.55;87.13;97939.09;5075088;28;20302;-71
2022/11/18 06:20:23;;;;;;;;;;;;;;;7.58;86.97;97943.28;5073954;28;19924;-71
2022/11/18 06:22:54;;;;;;;;;;;;;;;7.60;86.72;97942.38;5074867;28;19985;-71
2022/11/18 06:25:23;;;;;;;;;;;;;;;7.60;87.20;97936.47;5074893;28;19924;-71
2022/11/18 06:27:52;;;;;;;;;;;;;;;7.63;87.48;97931.34;5074572;28;20024;-71
2022/11/18 06:30:22;;;;;;;;;;;;;;;7.63;86.65;97942.31;5073654;28;19930;-71
2022/11/18 06:32:51;;;;;;;;;;;;;;;7.65;86.68;97939.75;5074627;28;20405;-71
2022/11/18 06:35:19;;;;;;;;;;;;;;;7.62;86.90;97929.66;5074453;28;19924;-71
2022/11/18 06:37:49;;;;;;;;;;;;;;;7.62;86.79;97943.19;5073756;28;21333;-71
2022/11/18 06:40:19;;;;;;;;;;;;;;;7.60;86.49;97946.63;5074365;28;19924;-71
2022/11/18 06:45:26;;;;;;;;;;;;;;;7.63;86.87;97947.38;5074261;28;19925;-71
2022/11/18 06:47:55;;;;;;;;;;;;;;;7.64;86.81;97946.53;5074526;28;20385;-71
2022/11/18 06:50:24;;;;;;;;;;;;;;;7.65;86.30;97955.84;5074115;28;19924;-71
2022/11/18 06:52:52;;;;;;;;;;;;;;;7.65;86.29;97955.84;5074123;28;19924;-71
2022/11/18 06:55:21;;;;;;;;;;;;;;;7.67;86.39;97968.50;5073983;28;19924;-71
2022/11/18 06:57:49;;;;;;;;;;;;;;;7.68;85.83;97976.06;5074452;28;19924;-70
2022/11/18 07:00:18;;;;;;;;;;;;;;;7.70;86.09;97969.25;5074052;28;19974;-70
2022/11/18 07:02:48;;;;;;;;;;;;;;;7.69;85.98;97972.69;5074241;28;19930;-70
2022/11/18 07:05:17;;;;;;;;;;;;;;;7.67;86.66;97983.72;5073957;28;19924;-70
2022/11/18 07:07:45;;;;;;;;;;;;;;;7.66;86.76;97972.72;5073890;28;19925;-70
2022/11/18 07:10:14;;;;;;;;;;;;;;;7.66;86.59;97972.72;5073950;28;19924;-71
2022/11/18 07:12:42;;;;;;;;;;;;;;;7.58;86.23;97984.72;5074115;28;20268;-71
2022/11/18 07:15:10;;;;;;;;;;;;;;;7.54;86.05;97977.16;5073801;28;20355;-71
2022/11/18 07:17:39;;;;;;;;;;;;;;;7.53;86.44;97976.34;5073826;28;19931;-71
2022/11/18 07:20:09;;;;;;;;;;;;;;;7.55;86.08;97972.06;5072646;28;20341;-70
2022/11/18 07:22:38;;;;;;;;;;;;;;;7.57;86.36;97966.97;5073850;28;19924;-71
2022/11/18 07:25:06;;;;;;;;;;;;;;;7.55;85.64;97964.47;5073788;28;19924;-71
2022/11/18 07:27:34;;;;;;;;;;;;;;;7.58;86.24;97972.03;5073802;28;20020;-71
2022/11/18 07:30:03;;;;;;;;;;;;;;;7.65;85.89;97966.00;5073438;28;19932;-71
2022/11/18 07:32:33;;;;;;;;;;;;;;;7.72;86.51;97974.34;5074029;28;20100;-71
2022/11/18 07:35:01;;;;;;;;;;;;;;;7.75;86.19;97967.47;5073701;28;19924;-71
2022/11/18 07:37:31;;;;;;;;;;;;;;;7.80;85.68;97975.88;5073531;28;19924;-71
2022/11/18 07:39:59;;;;;;;;;;;;;;;7.84;86.14;97976.66;5073520;28;20366;-70
2022/11/18 07:42:27;;;;;;;;;;;;;;;7.88;86.67;97973.19;5073936;28;19976;-71
2022/11/18 07:44:56;;;;;;;;;;;;;;;7.87;86.17;97987.59;5073936;28;19928;-70
2022/11/18 07:47:24;;;;;;;;;;;;;;;7.84;86.54;97990.22;5075058;28;19993;-71
2022/11/18 07:49:52;;;;;;;;;;;;;;;7.82;86.28;97976.66;5074154;28;20320;-71
2022/11/18 07:52:21;;;;;;;;;;;;;;;7.81;85.99;97987.72;5073358;28;19932;-71
2022/11/18 07:54:51;;;;;;;;;;;;;;;7.78;86.73;97994.53;5075063;28;20355;-71
2022/11/18 07:57:19;;;;;;;;;;;;;;;7.78;85.77;97985.22;5079683;28;19970;-71
2022/11/18 07:59:48;;;;;;;;;;;;;;;7.78;87.00;97980.13;5092625;28;19963;-72
2022/11/18 08:02:16;;;;;;;;;;;;;;;7.80;86.50;97975.03;5093515;28;19930;-70
2022/11/18 08:04:44;;;;;;;;;;;;;;;7.77;86.36;97968.31;5075986;28;20007;-70
2022/11/18 08:07:13;;;;;;;;;;;;;;;7.77;87.07;97954.78;5072527;28;19928;-71
2022/11/18 08:09:41;;;;;;;;;;;;;;;7.79;86.79;97953.06;5073653;28;19928;-71
2022/11/18 08:12:11;;;;;;;;;;;;;;;7.79;86.68;97953.91;5073338;28;19929;-71
2022/11/18 08:14:39;;;;;;;;;;;;;;;7.75;86.38;97961.59;5075857;28;19924;-71
2022/11/18 08:17:08;;;;;;;;;;;;;;;7.74;87.00;97955.66;5077084;28;19932;-72
2022/11/18 08:19:36;;;;;;;;;;;;;;;7.77;87.19;97953.09;5058519;28;19931;-72
2022/11/18 08:22:04;;;;;;;;;;;;;;;7.83;87.20;97955.50;5076789;28;19925;-72
2022/11/18 08:24:33;;;;;;;;;;;;;;;7.89;87.13;97957.91;5076741;28;19935;-71
2022/11/18 08:27:01;;;;;;;;;;;;;;;7.94;87.44;97966.31;5076676;28;19947;-72
2022/11/18 08:29:31;;;;;;;;;;;;;;;7.90;87.48;97974.84;5076524;28;19928;-72
2022/11/18 08:32:00;;;;;;;;;;;;;;;7.91;87.53;97971.47;5076524;28;19928;-72
2022/11/18 08:34:28;;;;;;;;;;;;;;;7.91;87.66;97968.91;5076510;28;20401;-72
2022/11/18 08:36:57;;;;;;;;;;;;;;;7.91;87.73;97958.75;5082687;28;20431;-72
2022/11/18 08:39:26;;;;;;;;;;;;;;;7.93;87.50;97951.09;5081647;28;19924;-72
2022/11/18 08:41:54;;;;;;;;;;;;;;;7.97;87.54;97945.94;5076904;28;20382;-70
2022/11/18 08:44:23;;;;;;;;;;;;;;;7.97;87.43;97948.47;5076556;28;19928;-70
2022/11/18 08:46:52;;;;;;;;;;;;;;;7.93;87.89;97939.25;5076894;28;19955;-71
2022/11/18 08:49:21;;;;;;;;;;;;;;;7.92;88.12;97940.09;5076745;28;20022;-71
2022/11/18 08:51:49;;;;;;;;;;;;;;;7.94;88.09;97942.63;5077277;28;19925;-70
2022/11/18 08:54:17;;;;;;;;;;;;;;;7.92;88.47;97945.19;5076553;28;19928;-70
2022/11/18 08:56:46;;;;;;;;;;;;;;;7.95;87.68;97939.19;5076681;28;19948;-70
2022/11/18 08:59:14;;;;;;;;;;;;;;;7.97;88.29;97938.31;5076268;28;19928;-69
2022/11/18 09:01:43;;;;;;;;;;;;;;;8.04;88.44;97950.03;5076217;28;19933;-71
2022/11/18 09:04:12;;;;;;;;;;;;;;;8.11;88.03;97956.66;5076243;28;19925;-70
2022/11/18 09:06:41;;;;;;;;;;;;;;;8.09;88.10;97948.25;5076392;28;19924;-70
2022/11/18 09:09:09;;;;;;;;;;;;;;;8.13;89.12;97960.00;5076747;28;19935;-71
2022/11/18 09:11:39;;;;;;;;;;;;;;;8.19;89.10;97963.31;5076059;28;19924;-69
2022/11/18 09:14:07;;;;;;;;;;;;;;;8.16;88.47;97956.59;5075994;28;19924;-69
2022/11/18 09:16:55;;;;;;;;;;;;;;;8.10;88.85;97960.09;5082887;28;19931;-70
2022/11/18 09:19:25;;;;;;;;;;;;;;;8.13;88.66;97960.91;5076054;28;20271;-70
2022/11/18 09:22:13;;;;;;;;;;;;;;;8.22;88.95;97973.44;5076035;28;20288;-70
2022/11/18 09:24:43;;;;;;;;;;;;;;;8.26;88.63;97967.41;5074911;28;19931;-70
2022/11/18 09:27:12;;;;;;;;;;;;;;;8.27;89.17;97961.50;5075844;28;19947;-71
2022/11/18 09:29:44;;;;;;;;;;;;;;;8.27;89.36;97966.59;5075809;28;20366;-71
2022/11/18 09:32:12;;;;;;;;;;;;;;;8.21;89.13;97956.50;5084733;28;19924;-69
2022/11/18 09:34:43;;;;;;;;;;;;;;;8.25;89.05;97955.59;5077323;28;19925;-71
2022/11/18 09:37:11;;;;;;;;;;;;;;;8.23;89.45;97949.69;5074294;28;20356;-71
2022/11/18 09:39:39;;;;;;;;;;;;;;;8.25;88.62;97937.78;5075529;28;19925;-73
2022/11/18 09:42:15;;;;;;;;;;;;;;;8.21;89.05;97931.09;5075706;28;20015;-71
2022/11/18 09:45:02;;;;;;;;;;;;;;;8.18;88.88;97911.69;5075414;28;19960;-70
2022/11/18 09:47:37;;;;;;;;;;;;;;;8.23;88.09;97909.03;5070843;28;19931;-69
2022/11/18 09:50:11;;;;;;;;;;;;;;;8.27;89.21;97905.59;5075578;28;19929;-69
2022/11/18 09:53:04;;;;;;;;;;;;;;;8.36;88.95;97923.19;5075241;28;19925;-70
2022/11/18 09:55:34;;;;;;;;;;;;;;;8.39;88.77;97925.69;5074316;28;20391;-71
2022/11/18 09:58:03;;;;;;;;;;;;;;;8.39;89.06;97925.69;5091114;28;20336;-71
2022/11/18 10:00:35;;;;;;;;;;;;;;;8.46;88.63;97929.78;5095422;28;20075;-69
2022/11/18 10:03:05;;;;;;;;;;;;;;;8.48;88.95;97928.03;5088743;28;19924;-72
2022/11/18 10:05:42;;;;;;;;;;;;;;;8.50;88.29;97933.91;5081662;28;20045;-69
2022/11/18 10:08:17;;;;;;;;;;;;;;;8.52;88.62;97927.09;5074812;28;19924;-71
2022/11/18 10:10:55;;;;;;;;;;;;;;;8.48;88.40;97923.78;5075244;28;19928;-71
2022/11/18 10:13:31;;;;;;;;;;;;;;;8.40;88.09;97907.00;5075119;28;19925;-71
2022/11/18 10:16:03;;;;;;;;;;;;;;;8.42;88.08;97905.28;5074561;28;19978;-71
2022/11/18 10:18:36;;;;;;;;;;;;;;;8.46;87.33;97897.56;5074383;28;19970;-71
2022/11/18 10:21:32;;;;;;;;;;;;;;;8.49;87.85;97891.59;5081153;28;19924;-71
2022/11/18 10:24:02;;;;;;;;;;;;;;;8.50;87.45;97903.41;5093984;28;20023;-70
2022/11/18 10:26:34;;;;;;;;;;;;;;;8.53;87.55;97898.28;5088915;28;20027;-70
2022/11/18 10:29:06;;;;;;;;;;;;;;;8.59;86.77;97895.63;5074787;28;19924;-71
2022/11/18 10:31:36;;;;;;;;;;;;;;;8.62;86.74;97892.97;5081184;28;19986;-70
2022/11/18 10:34:04;;;;;;;;;;;;;;;8.65;86.77;97903.09;5080950;28;19924;-70
2022/11/18 10:36:36;;;;;;;;;;;;;;;8.70;87.01;97901.28;5075569;28;19928;-70
2022/11/18 10:39:05;;;;;;;;;;;;;;;8.72;86.55;97904.63;5074703;28;19948;-70
2022/11/18 10:41:38;;;;;;;;;;;;;;;8.76;87.16;97901.97;5074260;28;19940;-70
2022/11/18 10:44:27;;;;;;;;;;;;;;;8.82;86.60;97906.09;5074679;28;19947;-70
2022/11/18 10:46:56;;;;;;;;;;;;;;;8.83;86.56;97915.38;5074328;28;19963;-70
2022/11/18 10:49:24;;;;;;;;;;;;;;;8.82;87.61;97911.19;5074234;28;19924;-70
2022/11/18 10:52:08;;;;;;;;;;;;;;;8.82;87.01;97920.53;5074150;28;19925;-70
2022/11/18 10:54:37;;;;;;;;;;;;;;;8.81;86.78;97922.22;5076331;28;19924;-71
2022/11/18 10:57:07;;;;;;;;;;;;;;;8.79;86.88;97921.41;5089946;28;19993;-70
2022/11/18 10:59:40;;;;;;;;;;;;;;;8.76;86.91;97921.47;5094125;28;19954;-70
2022/11/18 11:02:15;;;;;;;;;;;;;;;8.73;86.99;97932.56;5094442;28;20392;-70
2022/11/18 11:04:44;;;;;;;;;;;;;;;8.71;86.81;97920.75;5094278;28;19930;-70
2022/11/18 11:07:23;;;;;;;;;;;;;;;8.70;86.79;97917.38;5094560;28;20018;-70
2022/11/18 11:10:11;;;;;;;;;;;;;;;8.69;86.97;97915.69;5094028;28;19928;-70
2022/11/18 11:12:45;;;;;;;;;;;;;;;8.72;86.86;97904.63;5094299;28;19924;-70
2022/11/18 11:15:16;;;;;;;;;;;;;;;8.71;86.77;97908.03;5094202;28;19930;-70
2022/11/18 11:18:40;;;;;;;;;;;;;;;8.72;86.70;97904.63;5091528;28;19931;-70
2022/11/18 11:20:36;;;;;;;;;;;;;;;8.74;87.10;97918.13;5093916;28;19928;-70
2022/11/18 11:23:10;;;;;;;;;;;;;;;8.75;87.17;97909.66;5094091;28;20019;-70
2022/11/18 11:25:43;;;;;;;;;;;;;;;8.76;86.72;97901.13;5092602;28;19924;-69
2022/11/18 11:28:37;;;;;;;;;;;;;;;8.73;86.74;97911.41;5085105;28;19931;-69
2022/11/18 11:31:13;;;;;;;;;;;;;;;8.73;87.17;97906.31;5073634;28;19970;-69
2022/11/18 11:33:46;;;;;;;;;;;;;;;8.73;86.65;97906.31;5073625;28;19925;-69
2022/11/18 11:36:21;;;;;;;;;;;;;;;8.74;86.87;97910.50;5073425;28;19924;-69
2022/11/18 11:38:57;;;;;;;;;;;;;;;8.76;86.82;97906.22;5073645;28;19925;-69
2022/11/18 11:41:39;;;;;;;;;;;;;;;8.76;87.11;97901.13;5073758;28;19924;-69
2022/11/18 11:44:17;;;;;;;;;;;;;;;8.77;86.81;97908.75;5073722;28;19932;-69
2022/11/18 11:49:44;;;;;;;;;;;;;;;8.78;86.55;97914.69;5076344;28;20289;-69
2022/11/18 11:52:16;;;;;;;;;;;;;;;8.78;86.97;97912.13;5077601;28;20378;-70
2022/11/18 11:54:52;;;;;;;;;;;;;;;8.78;86.88;97914.69;5078358;28;20392;-70
2022/11/18 11:57:25;;;;;;;;;;;;;;;8.76;86.58;97914.69;5077453;28;19950;-70
2022/11/18 12:00:01;;;;;;;;;;;;;;;8.73;87.01;97916.50;5077806;28;20010;-71
2022/11/18 12:02:53;;;;;;;;;;;;;;;8.66;86.98;97920.03;5077575;28;19931;-70
2022/11/18 12:05:23;;;;;;;;;;;;;;;8.55;86.62;97925.34;5077330;28;19931;-70
2022/11/18 12:07:54;;;;;;;;;;;;;;;8.55;86.50;97917.69;5077290;28;19924;-69
2022/11/18 12:10:30;;;;;;;;;;;;;;;8.50;86.71;97918.66;5077246;28;19924;-71
2022/11/18 12:13:07;;;;;;;;;;;;;;;8.44;86.75;97923.88;5077471;28;20359;-70
2022/11/18 12:15:42;;;;;;;;;;;;;;;8.37;86.50;97917.25;5077500;28;20345;-70
2022/11/18 12:18:15;;;;;;;;;;;;;;;8.36;86.61;97910.50;5077029;28;19968;-70
2022/11/18 12:20:46;;;;;;;;;;;;;;;8.36;86.05;97907.94;5076936;28;19974;-71
2022/11/18 12:23:16;;;;;;;;;;;;;;;8.34;86.43;97913.06;5086800;28;20328;-69
2022/11/18 12:25:53;;;;;;;;;;;;;;;8.32;87.03;97903.81;5087732;28;20007;-71
2022/11/18 12:28:27;;;;;;;;;;;;;;;8.30;86.79;97890.28;5075606;28;19924;-69
2022/11/18 12:31:06;;;;;;;;;;;;;;;8.32;87.46;97889.41;5076821;28;19930;-69
2022/11/18 12:33:42;;;;;;;;;;;;;;;8.33;87.24;97885.97;5076827;28;19928;-69
2022/11/18 12:36:24;;;;;;;;;;;;;;;8.31;87.14;97876.69;5076562;28;19924;-69
2022/11/18 12:38:53;;;;;;;;;;;;;;;8.30;87.88;97869.97;5076983;28;19924;-70
2022/11/18 12:44:23;;;;;;;;;;;;;;;8.25;87.55;97864.94;5076704;28;20371;-70
2022/11/18 12:46:52;;;;;;;;;;;;;;;8.25;88.07;97866.66;5076857;28;19928;-71
2022/11/18 12:49:31;;;;;;;;;;;;;;;8.25;87.67;97866.66;5075522;28;20305;-69
2022/11/18 12:52:00;;;;;;;;;;;;;;;8.20;88.24;97868.44;5076814;28;20028;-69
2022/11/18 12:54:32;;;;;;;;;;;;;;;8.18;87.13;97865.09;5076777;28;19931;-69
2022/11/18 12:57:01;;;;;;;;;;;;;;;8.15;87.55;97860.06;5076826;28;20259;-69
2022/11/18 12:59:32;;;;;;;;;;;;;;;8.18;87.71;97865.94;5076400;28;20027;-70
2022/11/18 13:02:02;;;;;;;;;;;;;;;8.17;87.46;97853.25;5076390;28;19956;-70
2022/11/18 13:04:30;;;;;;;;;;;;;;;8.15;87.90;97860.06;5076656;28;20023;-71
2022/11/18 13:07:00;;;;;;;;;;;;;;;8.19;87.96;97865.06;5076149;28;19928;-70
2022/11/18 13:09:30;;;;;;;;;;;;;;;8.25;88.21;97871.72;5076183;28;19970;-69
2022/11/18 13:12:07;;;;;;;;;;;;;;;8.22;87.66;97874.31;5076484;28;19959;-69
2022/11/18 13:20:03;;;;;;;;;;;;;;;8.24;87.70;97870.03;5074770;28;19973;-70
2022/11/18 13:25:20;;;;;;;;;;;;;;;8.11;87.47;97888.06;5076191;28;19928;-69
2022/11/18 13:27:52;;;;;;;;;;;;;;;8.10;86.98;97883.03;5074789;28;19924;-69
2022/11/18 13:30:22;;;;;;;;;;;;;;;8.08;87.52;97893.25;5084151;28;19924;-69
2022/11/18 13:32:51;;;;;;;;;;;;;;;8.08;87.32;97894.94;5096246;28;19946;-70
2022/11/18 13:35:21;;;;;;;;;;;;;;;8.03;86.71;97896.72;5096275;28;19924;-69
2022/11/18 13:37:52;;;;;;;;;;;;;;;8.02;87.07;97897.59;5095801;28;19924;-69
2022/11/18 13:40:22;;;;;;;;;;;;;;;8.03;87.21;97895.03;5096121;28;20061;-69
2022/11/18 13:42:50;;;;;;;;;;;;;;;8.03;86.50;97900.13;5095766;28;19924;-69
2022/11/18 13:45:19;;;;;;;;;;;;;;;8.05;86.55;97897.53;5095698;28;19951;-69
2022/11/18 13:47:50;;;;;;;;;;;;;;;8.02;86.86;97890.81;5095986;28;19925;-69
2022/11/18 13:50:22;;;;;;;;;;;;;;;8.00;86.88;97897.63;5095547;28;19931;-69